createdAt,value
2019-05-30T00:01:35.477Z,98011.73
2019-05-30T00:04:06.403Z,98009.21
2019-05-30T00:06:36.127Z,98009.21
2019-05-30T00:09:08.238Z,98009.27
2019-05-30T00:11:37.819Z,98008.10
2019-05-30T00:14:07.585Z,98006.02
2019-05-30T00:16:37.683Z,98006.02
2019-05-30T00:19:07.046Z,98003.45
2019-05-30T00:21:36.612Z,98001.97
2019-05-30T00:24:08.304Z,98006.80
2019-05-30T00:26:38.251Z,98009.19
2019-05-30T00:29:12.666Z,98009.68
2019-05-30T00:31:42.611Z,98005.46
2019-05-30T00:34:12.080Z,98006.16
2019-05-30T00:36:42.214Z,98006.99
2019-05-30T00:39:12.379Z,98001.98
2019-05-30T00:41:42.551Z,98007.99
2019-05-30T00:46:40.740Z,97997.45
2019-05-30T00:49:11.510Z,98001.19
2019-05-30T00:51:41.388Z,97998.93
2019-05-30T00:54:11.394Z,98003.06
2019-05-30T00:56:41.002Z,98001.26
2019-05-30T00:59:10.666Z,98004.54
2019-05-30T01:01:40.736Z,98004.54
2019-05-30T01:04:10.650Z,98006.20
2019-05-30T01:06:40.736Z,98006.20
2019-05-30T01:09:10.334Z,98005.74
2019-05-30T01:11:40.085Z,98010.71
2019-05-30T01:14:09.809Z,98013.17
2019-05-30T01:16:42.566Z,98013.17
2019-05-30T01:19:11.221Z,98007.13
2019-05-30T01:21:41.181Z,98009.57
2019-05-30T01:24:11.004Z,97999.75
2019-05-30T01:26:42.556Z,97988.73
2019-05-30T01:29:12.417Z,97988.73
2019-05-30T01:31:42.670Z,97995.02
2019-05-30T01:34:12.384Z,97995.02
2019-05-30T01:36:42.119Z,97986.05
2019-05-30T01:39:11.694Z,97986.66
2019-05-30T01:41:44.467Z,97990.31
2019-05-30T01:44:14.071Z,97990.91
2019-05-30T01:46:43.943Z,97990.91
2019-05-30T01:49:16.384Z,97995.44
2019-05-30T01:51:46.075Z,97997.30
2019-05-30T01:54:15.763Z,97997.30
2019-05-30T01:56:45.496Z,97987.52
2019-05-30T01:59:15.297Z,97991.22
2019-05-30T02:01:45.980Z,97989.78
2019-05-30T02:04:16.229Z,97995.26
2019-05-30T02:06:45.905Z,97989.95
2019-05-30T02:09:17.408Z,97992.38
2019-05-30T02:11:46.981Z,97992.38
2019-05-30T02:14:17.454Z,97998.02
2019-05-30T02:16:47.605Z,97983.97
2019-05-30T02:19:17.010Z,97989.95
2019-05-30T02:21:46.706Z,97989.95
2019-05-30T02:24:16.184Z,97981.53
2019-05-30T02:26:45.892Z,97981.37
2019-05-30T02:29:15.489Z,97980.44
2019-05-30T02:31:45.105Z,97988.02
2019-05-30T02:34:14.906Z,97986.42
2019-05-30T02:36:44.523Z,97986.42
2019-05-30T02:39:14.755Z,97987.05
2019-05-30T02:41:46.837Z,97987.78
2019-05-30T02:44:16.825Z,97988.50
2019-05-30T02:46:46.546Z,97983.02
2019-05-30T02:49:16.343Z,97979.52
2019-05-30T02:51:46.180Z,97995.89
2019-05-30T02:54:15.965Z,97995.89
2019-05-30T02:56:46.210Z,97991.58
2019-05-30T02:59:16.337Z,97994.19
2019-05-30T03:01:59.882Z,97993.77
2019-05-30T03:04:17.792Z,97993.77
2019-05-30T03:06:48.261Z,97991.86
2019-05-30T03:09:17.960Z,97998.16
2019-05-30T03:11:47.945Z,97998.16
2019-05-30T03:14:19.861Z,97998.16
2019-05-30T03:16:49.537Z,97992.66
2019-05-30T03:19:19.404Z,98000.11
2019-05-30T03:21:49.331Z,98002.55
2019-05-30T03:24:19.164Z,97999.33
2019-05-30T03:26:49.400Z,97999.33
2019-05-30T03:29:19.438Z,97995.16
2019-05-30T03:31:49.677Z,97995.16
2019-05-30T03:34:27.434Z,98000.34
2019-05-30T03:36:50.824Z,98003.95
2019-05-30T03:39:20.585Z,98004.13
2019-05-30T03:41:50.463Z,98004.13
2019-05-30T03:44:20.303Z,98011.84
2019-05-30T03:46:52.362Z,98008.46
2019-05-30T03:49:24.664Z,98010.12
2019-05-30T03:51:55.043Z,98010.12
2019-05-30T03:54:24.784Z,98014.45
2019-05-30T03:56:57.647Z,98012.37
2019-05-30T03:59:30.939Z,98019.83
2019-05-30T04:02:21.713Z,98019.83
2019-05-30T04:04:56.278Z,98018.62
2019-05-30T04:07:26.161Z,98017.03
2019-05-30T04:09:56.269Z,98017.39
2019-05-30T04:12:38.336Z,98015.56
2019-05-30T04:15:09.960Z,98014.15
2019-05-30T04:17:39.702Z,98014.15
2019-05-30T04:20:09.833Z,98018.91
2019-05-30T04:22:40.962Z,98018.91
2019-05-30T04:25:12.559Z,98024.16
2019-05-30T04:27:42.175Z,98021.13
2019-05-30T04:30:12.013Z,98022.00
2019-05-30T04:32:41.909Z,98022.00
2019-05-30T04:35:12.327Z,98032.34
2019-05-30T04:37:42.952Z,98036.69
2019-05-30T04:40:13.345Z,98032.84
2019-05-30T04:42:44.177Z,98032.84
2019-05-30T04:45:15.828Z,98040.46
2019-05-30T04:47:45.479Z,98041.77
2019-05-30T04:50:16.390Z,98035.16
2019-05-30T04:52:46.227Z,98035.16
2019-05-30T04:55:18.024Z,98035.42
2019-05-30T04:57:47.857Z,98027.95
2019-05-30T05:00:19.423Z,98028.57
2019-05-30T05:02:49.390Z,98031.73
2019-05-30T05:05:25.942Z,98031.73
2019-05-30T05:07:50.970Z,98038.52
2019-05-30T05:10:22.338Z,98041.38
2019-05-30T05:12:52.401Z,98041.38
2019-05-30T05:15:22.871Z,98041.36
2019-05-30T05:17:52.540Z,98042.47
2019-05-30T05:20:23.527Z,98045.19
2019-05-30T05:22:53.735Z,98046.02
2019-05-30T05:25:23.633Z,98047.23
2019-05-30T05:27:53.511Z,98054.97
2019-05-30T05:30:24.384Z,98054.97
2019-05-30T05:32:54.237Z,98044.85
2019-05-30T05:35:25.013Z,98044.85
2019-05-30T05:37:54.883Z,98046.06
2019-05-30T05:40:25.340Z,98046.06
2019-05-30T05:42:55.373Z,98052.67
2019-05-30T05:45:25.245Z,98040.39
2019-05-30T05:47:55.467Z,98034.59
2019-05-30T05:50:25.283Z,98040.30
2019-05-30T05:52:55.355Z,98040.30
2019-05-30T05:55:25.067Z,98043.26
2019-05-30T05:57:55.253Z,98047.85
2019-05-30T06:00:25.340Z,98047.47
2019-05-30T06:02:55.287Z,98047.47
2019-05-30T06:05:25.004Z,98052.20
2019-05-30T06:07:54.626Z,98060.77
2019-05-30T06:10:25.724Z,98060.77
2019-05-30T06:12:55.667Z,98066.16
2019-05-30T06:15:25.657Z,98069.12
2019-05-30T06:17:55.521Z,98058.70
2019-05-30T06:20:25.442Z,98058.70
2019-05-30T06:22:55.911Z,98062.59
2019-05-30T06:25:30.346Z,98054.98
2019-05-30T06:27:57.087Z,98054.98
2019-05-30T06:30:28.569Z,98060.14
2019-05-30T06:32:58.499Z,98058.13
2019-05-30T06:35:29.501Z,98058.37
2019-05-30T06:37:59.569Z,98058.37
2019-05-30T06:40:30.890Z,98066.41
2019-05-30T06:43:01.396Z,98063.20
2019-05-30T06:45:31.277Z,98054.90
2019-05-30T06:48:01.388Z,98063.25
2019-05-30T06:50:32.546Z,98062.63
2019-05-30T06:53:02.652Z,98062.63
2019-05-30T06:55:34.942Z,98066.25
2019-05-30T06:58:05.055Z,98066.25
2019-05-30T07:00:35.100Z,98063.91
2019-05-30T07:03:05.396Z,98067.03
2019-05-30T07:05:35.867Z,98065.54
2019-05-30T07:08:06.244Z,98066.25
2019-05-30T07:10:36.895Z,98066.25
2019-05-30T07:13:06.795Z,98067.68
2019-05-30T07:15:36.885Z,98074.16
2019-05-30T07:18:06.729Z,98077.66
2019-05-30T07:20:36.429Z,98080.63
2019-05-30T07:23:06.504Z,98080.84
2019-05-30T07:25:36.222Z,98080.84
2019-05-30T07:28:07.267Z,98087.56
2019-05-30T07:30:37.116Z,98105.89
2019-05-30T07:33:07.380Z,98105.58
2019-05-30T07:35:37.099Z,98106.25
2019-05-30T07:38:08.780Z,98106.25
2019-05-30T07:40:39.345Z,98109.66
2019-05-30T07:43:09.126Z,98119.80
2019-05-30T07:45:39.142Z,98119.81
2019-05-30T07:48:09.483Z,98118.61
2019-05-30T07:50:40.031Z,98118.61
2019-05-30T07:53:11.118Z,98119.61
2019-05-30T07:55:42.196Z,98114.56
2019-05-30T07:58:12.211Z,98111.47
2019-05-30T08:00:42.033Z,98111.47
2019-05-30T08:03:12.730Z,98120.92
2019-05-30T08:05:43.094Z,98118.33
2019-05-30T08:10:40.751Z,98119.06
2019-05-30T08:13:11.646Z,98116.61
2019-05-30T08:15:44.077Z,98121.48
2019-05-30T08:18:13.048Z,98125.02
2019-05-30T08:20:43.429Z,98117.73
2019-05-30T08:23:13.092Z,98117.73
2019-05-30T08:25:44.962Z,98128.20
2019-05-30T08:28:14.837Z,98126.87
2019-05-30T08:30:44.788Z,98127.73
2019-05-30T08:33:14.845Z,98127.48
2019-05-30T08:35:49.868Z,98114.94
2019-05-30T08:38:16.389Z,98114.94
2019-05-30T08:40:46.474Z,98110.06
2019-05-30T08:43:20.269Z,98107.17
2019-05-30T08:45:50.163Z,98107.17
2019-05-30T08:48:20.133Z,98112.27
2019-05-30T08:50:49.990Z,98113.63
2019-05-30T08:53:20.095Z,98113.63
2019-05-30T08:55:50.204Z,98105.52
2019-05-30T08:58:20.666Z,98106.80
2019-05-30T09:00:50.448Z,98106.80
2019-05-30T09:03:20.400Z,98104.16
2019-05-30T09:06:02.560Z,98105.01
2019-05-30T09:08:21.770Z,98099.09
2019-05-30T09:10:51.653Z,98099.09
2019-05-30T09:13:21.576Z,98091.38
2019-05-30T09:15:51.377Z,98085.31
2019-05-30T09:18:21.444Z,98085.31
2019-05-30T09:20:51.376Z,98092.58
2019-05-30T09:23:23.351Z,98092.67
2019-05-30T09:25:53.272Z,98090.13
2019-05-30T09:28:22.943Z,98088.16
2019-05-30T09:30:54.074Z,98096.30
2019-05-30T09:33:27.744Z,98096.22
2019-05-30T09:36:12.219Z,98093.16
2019-05-30T09:38:30.244Z,98093.16
2019-05-30T09:41:00.453Z,98095.87
2019-05-30T09:43:30.236Z,98095.87
2019-05-30T09:46:01.655Z,98097.46
2019-05-30T09:48:31.595Z,98097.46
2019-05-30T09:51:03.660Z,98099.41
2019-05-30T09:53:33.307Z,98099.41
2019-05-30T09:56:03.377Z,98110.97
2019-05-30T09:58:34.679Z,98111.75
2019-05-30T10:01:04.779Z,98111.75
2019-05-30T10:03:34.685Z,98119.86
2019-05-30T10:06:04.407Z,98116.53
2019-05-30T10:08:34.815Z,98122.56
2019-05-30T10:11:07.012Z,98117.00
2019-05-30T10:13:37.237Z,98121.71
2019-05-30T10:16:07.142Z,98131.73
2019-05-30T10:18:37.302Z,98113.83
2019-05-30T10:21:07.056Z,98113.83
2019-05-30T10:23:37.077Z,98107.91
2019-05-30T10:26:07.629Z,98102.99
2019-05-30T10:28:37.577Z,98108.22
2019-05-30T10:31:14.407Z,98108.22
2019-05-30T10:33:46.282Z,98112.16
2019-05-30T10:36:20.030Z,98112.16
2019-05-30T10:38:50.425Z,98113.16
2019-05-30T10:41:23.507Z,98117.56
2019-05-30T10:43:53.259Z,98122.49
2019-05-30T10:46:23.218Z,98122.49
2019-05-30T10:48:54.510Z,98108.73
2019-05-30T10:51:24.571Z,98111.98
2019-05-30T10:53:57.390Z,98111.98
2019-05-30T10:56:29.622Z,98116.41
2019-05-30T10:59:00.084Z,98116.41
2019-05-30T11:01:30.970Z,98123.19
2019-05-30T11:04:00.711Z,98116.02
2019-05-30T11:06:38.042Z,98116.02
2019-05-30T11:09:14.013Z,98125.56
2019-05-30T11:11:44.135Z,98123.02
2019-05-30T11:14:14.289Z,98126.24
2019-05-30T11:16:44.962Z,98127.75
2019-05-30T11:19:15.299Z,98128.94
2019-05-30T11:21:45.328Z,98131.66
2019-05-30T11:24:15.378Z,98136.05
2019-05-30T11:26:45.504Z,98136.05
2019-05-30T11:29:17.622Z,98131.95
2019-05-30T11:31:48.744Z,98131.95
2019-05-30T11:34:18.680Z,98136.67
2019-05-30T11:36:48.992Z,98136.41
2019-05-30T11:39:20.137Z,98135.11
2019-05-30T11:41:49.620Z,98135.28
2019-05-30T11:44:19.867Z,98135.28
2019-05-30T11:46:51.515Z,98140.17
2019-05-30T11:49:21.570Z,98138.98
2019-05-30T11:51:51.714Z,98139.00
2019-05-30T11:54:21.684Z,98147.98
2019-05-30T11:56:52.036Z,98142.16
2019-05-30T11:59:22.231Z,98141.55
2019-05-30T12:01:53.056Z,98141.45
2019-05-30T12:04:26.148Z,98141.45
2019-05-30T12:06:56.799Z,98141.16
2019-05-30T12:09:26.557Z,98141.16
2019-05-30T12:11:57.412Z,98150.98
2019-05-30T12:14:27.344Z,98151.43
2019-05-30T12:16:59.406Z,98151.43
2019-05-30T12:19:32.287Z,98159.16
2019-05-30T12:22:02.311Z,98170.19
2019-05-30T12:24:32.175Z,98165.87
2019-05-30T12:27:02.379Z,98163.42
2019-05-30T12:29:32.488Z,98163.42
2019-05-30T12:32:03.474Z,98163.73
2019-05-30T12:34:33.381Z,98163.73
2019-05-30T12:37:03.152Z,98165.75
2019-05-30T12:39:33.250Z,98158.52
2019-05-30T12:42:03.400Z,98156.47
2019-05-30T12:44:33.329Z,98156.47
2019-05-30T12:47:03.476Z,98167.13
2019-05-30T12:49:33.266Z,98167.13
2019-05-30T12:52:06.021Z,98166.92
2019-05-30T12:54:35.753Z,98171.65
2019-05-30T12:57:05.354Z,98173.27
2019-05-30T12:59:37.286Z,98173.27
2019-05-30T13:02:09.307Z,98181.39
2019-05-30T13:04:40.527Z,98181.39
2019-05-30T13:07:10.515Z,98176.56
2019-05-30T13:09:40.167Z,98176.56
2019-05-30T13:12:10.672Z,98180.88
2019-05-30T13:14:43.168Z,98180.88
2019-05-30T13:17:13.231Z,98180.28
2019-05-30T13:19:44.534Z,98180.28
2019-05-30T13:22:14.777Z,98183.01
2019-05-30T13:24:44.581Z,98184.57
2019-05-30T13:27:14.283Z,98184.57
2019-05-30T13:29:44.352Z,98181.73
2019-05-30T13:32:14.788Z,98177.61
2019-05-30T13:34:44.463Z,98184.73
2019-05-30T13:37:14.423Z,98184.73
2019-05-30T13:39:47.203Z,98188.00
2019-05-30T13:42:18.391Z,98183.24
2019-05-30T13:44:48.032Z,98189.67
2019-05-30T13:47:17.911Z,98189.67
2019-05-30T13:49:48.478Z,98186.80
2019-05-30T13:52:19.143Z,98190.33
2019-05-30T13:54:49.019Z,98193.39
2019-05-30T13:57:18.843Z,98187.69
2019-05-30T13:59:48.918Z,98185.67
2019-05-30T14:02:19.396Z,98185.56
2019-05-30T14:04:50.945Z,98193.19
2019-05-30T14:07:20.463Z,98186.48
2019-05-30T14:09:50.016Z,98198.80
2019-05-30T14:12:19.528Z,98198.80
2019-05-30T14:14:48.997Z,98194.47
2019-05-30T14:17:19.309Z,98202.91
2019-05-30T14:19:50.997Z,98198.84
2019-05-30T14:22:20.462Z,98199.70
2019-05-30T14:24:50.399Z,98205.62
2019-05-30T14:27:20.316Z,98209.37
2019-05-30T14:29:51.236Z,98209.37
2019-05-30T14:32:21.467Z,98216.00
2019-05-30T14:34:51.177Z,98217.70
2019-05-30T14:37:20.837Z,98217.70
2019-05-30T14:39:50.387Z,98218.83
2019-05-30T14:42:20.631Z,98220.95
2019-05-30T14:44:50.900Z,98220.95
2019-05-30T14:47:20.423Z,98223.87
2019-05-30T14:49:50.240Z,98226.47
2019-05-30T14:52:20.085Z,98226.47
2019-05-30T14:54:49.762Z,98224.06
2019-05-30T14:57:19.954Z,98221.66
2019-05-30T14:59:49.552Z,98218.11
2019-05-30T15:02:19.787Z,98218.11
2019-05-30T15:04:49.492Z,98220.56
2019-05-30T15:07:19.659Z,98220.56
2019-05-30T15:12:18.956Z,98224.97
2019-05-30T15:14:48.774Z,98224.97
2019-05-30T15:17:18.689Z,98218.25
2019-05-30T15:19:49.694Z,98220.00
2019-05-30T15:22:19.330Z,98220.96
2019-05-30T15:24:50.781Z,98208.77
2019-05-30T15:27:21.002Z,98203.98
2019-05-30T15:29:50.530Z,98203.98
2019-05-30T15:32:20.314Z,98208.29
2019-05-30T15:34:50.164Z,98211.00
2019-05-30T15:37:20.303Z,98212.91
2019-05-30T15:39:49.864Z,98215.11
2019-05-30T15:42:20.025Z,98217.94
2019-05-30T15:44:50.535Z,98217.74
2019-05-30T15:47:20.262Z,98218.63
2019-05-30T15:49:52.370Z,98221.91
2019-05-30T15:52:23.670Z,98217.11
2019-05-30T15:54:56.258Z,98217.11
2019-05-30T15:57:26.223Z,98213.86
2019-05-30T15:59:55.796Z,98211.78
2019-05-30T16:02:25.680Z,98211.78
2019-05-30T16:04:55.593Z,98211.45
2019-05-30T16:07:25.348Z,98218.66
2019-05-30T16:09:54.995Z,98213.39
2019-05-30T16:12:25.018Z,98215.72
2019-05-30T16:14:54.813Z,98205.13
2019-05-30T16:17:24.891Z,98204.92
2019-05-30T16:19:54.727Z,98202.39
2019-05-30T16:22:24.349Z,98202.39
2019-05-30T16:24:53.868Z,98197.02
2019-05-30T16:27:24.176Z,98199.53
2019-05-30T16:29:55.028Z,98199.53
2019-05-30T16:32:26.447Z,98196.14
2019-05-30T16:34:55.973Z,98190.72
2019-05-30T16:37:26.352Z,98191.03
2019-05-30T16:40:05.801Z,98188.86
2019-05-30T16:42:28.296Z,98197.82
2019-05-30T16:44:57.877Z,98201.75
2019-05-30T16:47:30.045Z,98195.98
2019-05-30T16:49:59.835Z,98194.14
2019-05-30T16:52:29.439Z,98195.31
2019-05-30T16:54:59.110Z,98189.70
2019-05-30T16:57:29.010Z,98189.70
2019-05-30T16:59:58.500Z,98189.21
2019-05-30T17:02:28.114Z,98186.16
2019-05-30T17:04:57.657Z,98178.52
2019-05-30T17:07:27.649Z,98180.07
2019-05-30T17:10:21.269Z,98181.89
2019-05-30T17:12:39.587Z,98181.05
2019-05-30T17:15:09.698Z,98182.59
2019-05-30T17:17:39.589Z,98181.56
2019-05-30T17:20:10.182Z,98184.63
2019-05-30T17:22:39.737Z,98188.53
2019-05-30T17:25:09.492Z,98189.03
2019-05-30T17:27:39.008Z,98189.22
2019-05-30T17:30:09.396Z,98181.24
2019-05-30T17:32:39.142Z,98176.48
2019-05-30T17:35:08.763Z,98182.08
2019-05-30T17:37:39.260Z,98186.16
2019-05-30T17:40:10.701Z,98192.42
2019-05-30T17:42:40.305Z,98190.55
2019-05-30T17:45:10.549Z,98183.62
2019-05-30T17:50:21.791Z,98180.73
2019-05-30T17:52:51.683Z,98185.13
2019-05-30T17:55:21.797Z,98185.13
2019-05-30T17:57:55.394Z,98193.45
2019-05-30T18:00:28.475Z,98193.45
2019-05-30T18:03:00.385Z,98194.12
2019-05-30T18:05:31.147Z,98194.12
2019-05-30T18:08:00.652Z,98195.48
2019-05-30T18:10:31.218Z,98192.42
2019-05-30T18:13:02.144Z,98199.73
2019-05-30T18:15:32.512Z,98201.75
2019-05-30T18:18:05.579Z,98201.75
2019-05-30T18:20:47.663Z,98204.45
2019-05-30T18:23:09.398Z,98204.45
2019-05-30T18:25:43.254Z,98196.80
2019-05-30T18:28:12.954Z,98200.39
2019-05-30T18:30:43.362Z,98201.36
2019-05-30T18:33:13.189Z,98201.36
2019-05-30T18:35:42.951Z,98200.82
2019-05-30T18:38:12.463Z,98200.31
2019-05-30T18:40:46.049Z,98199.54
2019-05-30T18:43:15.841Z,98199.61
2019-05-30T18:45:48.033Z,98201.25
2019-05-30T18:48:17.198Z,98196.05
2019-05-30T18:50:47.226Z,98194.85
2019-05-30T18:55:53.567Z,98197.44
2019-05-30T18:58:26.767Z,98198.93
2019-05-30T19:00:56.455Z,98204.52
2019-05-30T19:03:26.544Z,98208.50
2019-05-30T19:05:56.343Z,98203.49
2019-05-30T19:08:26.239Z,98210.27
2019-05-30T19:10:56.618Z,98213.45
2019-05-30T19:13:30.830Z,98219.72
2019-05-30T19:16:01.520Z,98222.41
2019-05-30T19:18:33.960Z,98222.41
2019-05-30T19:21:04.139Z,98231.48
2019-05-30T19:23:34.256Z,98231.48
2019-05-30T19:26:10.322Z,98235.53
2019-05-30T19:28:40.516Z,98233.73
2019-05-30T19:31:11.639Z,98233.54
2019-05-30T19:33:46.981Z,98234.38
2019-05-30T19:36:16.996Z,98238.17
2019-05-30T19:38:46.605Z,98240.08
2019-05-30T19:41:16.390Z,98250.18
2019-05-30T19:43:47.769Z,98250.18
2019-05-30T19:46:17.426Z,98246.71
2019-05-30T19:48:47.188Z,98249.92
2019-05-30T19:51:18.971Z,98258.78
2019-05-30T19:53:48.892Z,98258.78
2019-05-30T19:56:19.142Z,98260.08
2019-05-30T19:58:48.693Z,98264.19
2019-05-30T20:01:18.250Z,98259.80
2019-05-30T20:03:47.956Z,98259.80
2019-05-30T20:06:17.510Z,98253.90
2019-05-30T20:08:55.371Z,98253.90
2019-05-30T20:11:22.133Z,98257.81
2019-05-30T20:13:51.779Z,98260.72
2019-05-30T20:16:21.761Z,98260.72
2019-05-30T20:18:54.192Z,98259.87
2019-05-30T20:21:23.863Z,98265.69
2019-05-30T20:23:59.035Z,98257.28
2019-05-30T20:26:25.929Z,98257.28
2019-05-30T20:28:57.121Z,98261.16
2019-05-30T20:31:28.130Z,98261.16
2019-05-30T20:34:00.799Z,98258.59
2019-05-30T20:36:30.725Z,98265.37
2019-05-30T20:39:00.444Z,98265.37
2019-05-30T20:41:31.358Z,98270.34
2019-05-30T20:44:01.393Z,98281.59
2019-05-30T20:46:33.523Z,98290.24
2019-05-30T20:49:03.766Z,98285.63
2019-05-30T20:51:35.491Z,98285.63
2019-05-30T20:54:05.035Z,98285.13
2019-05-30T20:56:35.279Z,98286.18
2019-05-30T20:59:06.109Z,98292.34
2019-05-30T21:01:37.474Z,98287.68
2019-05-30T21:04:08.153Z,98287.74
2019-05-30T21:06:38.785Z,98296.36
2019-05-30T21:09:27.374Z,98296.36
2019-05-30T21:11:46.603Z,98297.50
2019-05-30T21:14:17.567Z,98300.95
2019-05-30T21:16:48.083Z,98300.95
2019-05-30T21:19:18.352Z,98305.55
2019-05-30T21:21:48.041Z,98303.88
2019-05-30T21:24:17.750Z,98303.81
2019-05-30T21:26:48.045Z,98303.81
2019-05-30T21:29:18.263Z,98311.31
2019-05-30T21:31:49.033Z,98315.20
2019-05-30T21:34:19.165Z,98316.34
2019-05-30T21:36:49.781Z,98316.91
2019-05-30T21:39:19.466Z,98316.91
2019-05-30T21:41:49.283Z,98312.84
2019-05-30T21:44:18.974Z,98319.93
2019-05-30T21:46:49.080Z,98318.91
2019-05-30T21:49:19.206Z,98318.91
2019-05-30T21:51:49.670Z,98326.23
2019-05-30T21:54:20.155Z,98331.82
2019-05-30T21:56:50.386Z,98331.82
2019-05-30T21:59:21.301Z,98323.46
2019-05-30T22:01:56.778Z,98318.90
2019-05-30T22:04:23.094Z,98318.90
2019-05-30T22:06:52.794Z,98310.19
2019-05-30T22:09:26.100Z,98310.19
2019-05-30T22:11:56.494Z,98319.12
2019-05-30T22:14:26.178Z,98321.75
2019-05-30T22:16:56.146Z,98319.20
2019-05-30T22:19:27.687Z,98319.20
2019-05-30T22:21:57.824Z,98319.16
2019-05-30T22:24:27.596Z,98323.14
2019-05-30T22:26:57.569Z,98322.08
2019-05-30T22:29:27.858Z,98322.08
2019-05-30T22:31:57.918Z,98316.52
2019-05-30T22:34:27.587Z,98319.40
2019-05-30T22:36:57.275Z,98319.40
2019-05-30T22:39:26.837Z,98320.27
2019-05-30T22:41:56.617Z,98321.67
2019-05-30T22:44:26.556Z,98321.67
2019-05-30T22:46:56.984Z,98319.49
2019-05-30T22:49:27.027Z,98317.99
2019-05-30T22:51:57.366Z,98314.27
2019-05-30T22:54:27.746Z,98315.27
2019-05-30T22:57:01.051Z,98315.27
2019-05-30T22:59:28.962Z,98323.30
2019-05-30T23:01:59.093Z,98317.27
2019-05-30T23:04:29.148Z,98317.27
2019-05-30T23:06:59.342Z,98313.52
2019-05-30T23:09:29.658Z,98308.76
2019-05-30T23:11:59.359Z,98310.97
2019-05-30T23:14:29.130Z,98310.97
2019-05-30T23:16:59.352Z,98313.23
2019-05-30T23:19:29.042Z,98307.96
2019-05-30T23:21:59.336Z,98307.96
2019-05-30T23:24:29.820Z,98306.29
2019-05-30T23:27:03.730Z,98309.63
2019-05-30T23:29:33.684Z,98311.33
2019-05-30T23:32:03.363Z,98316.37
2019-05-30T23:34:34.221Z,98316.73
2019-05-30T23:37:04.675Z,98311.10
2019-05-30T23:39:34.719Z,98311.10
2019-05-30T23:42:04.833Z,98310.61
2019-05-30T23:44:35.140Z,98307.19
2019-05-30T23:47:05.557Z,98306.33
2019-05-30T23:49:36.290Z,98306.33
2019-05-30T23:52:06.121Z,98299.84
2019-05-30T23:54:36.098Z,98294.64
2019-05-30T23:57:05.762Z,98290.25
2019-05-30T23:59:35.494Z,98290.25
